sensor_id;sensor_type;location;lat;lon;timestamp;P1;durP1;ratioP1;P2;durP2;ratioP2
78871;SDS011;68247;43.514;1.502;2023-10-08T00:01:02;8.50;;;3.10;;
78871;SDS011;68247;43.514;1.502;2023-10-08T00:03:28;7.65;;;3.63;;
78871;SDS011;68247;43.514;1.502;2023-10-08T00:05:54;7.67;;;3.40;;
78871;SDS011;68247;43.514;1.502;2023-10-08T00:08:20;6.72;;;3.08;;
78871;SDS011;68247;43.514;1.502;2023-10-08T00:10:46;7.10;;;3.05;;
78871;SDS011;68247;43.514;1.502;2023-10-08T00:13:12;7.63;;;3.17;;
78871;SDS011;68247;43.514;1.502;2023-10-08T00:15:40;6.43;;;3.33;;
78871;SDS011;68247;43.514;1.502;2023-10-08T00:18:19;7.57;;;3.95;;
78871;SDS011;68247;43.514;1.502;2023-10-08T00:20:45;9.07;;;3.30;;
78871;SDS011;68247;43.514;1.502;2023-10-08T00:23:21;6.90;;;3.42;;
78871;SDS011;68247;43.514;1.502;2023-10-08T00:25:50;7.17;;;3.47;;
78871;SDS011;68247;43.514;1.502;2023-10-08T00:28:16;7.75;;;3.25;;
78871;SDS011;68247;43.514;1.502;2023-10-08T00:30:42;6.57;;;3.40;;
78871;SDS011;68247;43.514;1.502;2023-10-08T00:33:08;6.60;;;3.33;;
78871;SDS011;68247;43.514;1.502;2023-10-08T00:35:41;6.20;;;3.47;;
78871;SDS011;68247;43.514;1.502;2023-10-08T00:38:10;6.82;;;3.40;;
78871;SDS011;68247;43.514;1.502;2023-10-08T00:40:48;7.10;;;3.17;;
78871;SDS011;68247;43.514;1.502;2023-10-08T00:43:33;6.65;;;3.30;;
78871;SDS011;68247;43.514;1.502;2023-10-08T00:46:03;7.77;;;3.50;;
78871;SDS011;68247;43.514;1.502;2023-10-08T00:48:36;7.80;;;3.28;;
78871;SDS011;68247;43.514;1.502;2023-10-08T00:51:04;7.03;;;3.20;;
78871;SDS011;68247;43.514;1.502;2023-10-08T00:53:49;7.03;;;3.20;;
78871;SDS011;68247;43.514;1.502;2023-10-08T00:56:28;6.65;;;3.22;;
78871;SDS011;68247;43.514;1.502;2023-10-08T00:59:14;12.63;;;3.83;;
78871;SDS011;68247;43.514;1.502;2023-10-08T01:01:41;6.93;;;3.53;;
78871;SDS011;68247;43.514;1.502;2023-10-08T01:04:14;6.60;;;3.30;;
78871;SDS011;68247;43.514;1.502;2023-10-08T01:06:44;8.47;;;3.40;;
78871;SDS011;68247;43.514;1.502;2023-10-08T01:09:12;7.15;;;3.38;;
78871;SDS011;68247;43.514;1.502;2023-10-08T01:11:43;8.95;;;3.40;;
78871;SDS011;68247;43.514;1.502;2023-10-08T01:14:18;8.65;;;3.75;;
78871;SDS011;68247;43.514;1.502;2023-10-08T01:16:46;7.93;;;3.38;;
78871;SDS011;68247;43.514;1.502;2023-10-08T01:19:17;9.97;;;3.90;;
78871;SDS011;68247;43.514;1.502;2023-10-08T01:21:45;8.70;;;3.20;;
78871;SDS011;68247;43.514;1.502;2023-10-08T01:24:10;8.70;;;3.67;;
78871;SDS011;68247;43.514;1.502;2023-10-08T01:26:41;6.07;;;3.30;;
78871;SDS011;68247;43.514;1.502;2023-10-08T01:29:10;6.60;;;3.50;;
78871;SDS011;68247;43.514;1.502;2023-10-08T01:31:44;8.48;;;3.30;;
78871;SDS011;68247;43.514;1.502;2023-10-08T01:34:10;7.43;;;3.03;;
78871;SDS011;68247;43.514;1.502;2023-10-08T01:36:40;5.88;;;2.97;;
78871;SDS011;68247;43.514;1.502;2023-10-08T01:39:08;6.45;;;3.33;;
78871;SDS011;68247;43.514;1.502;2023-10-08T01:41:36;5.83;;;3.00;;
78871;SDS011;68247;43.514;1.502;2023-10-08T01:44:05;6.15;;;3.15;;
78871;SDS011;68247;43.514;1.502;2023-10-08T01:46:33;7.13;;;3.22;;
78871;SDS011;68247;43.514;1.502;2023-10-08T01:48:59;7.50;;;2.95;;
78871;SDS011;68247;43.514;1.502;2023-10-08T01:51:28;8.50;;;3.30;;
78871;SDS011;68247;43.514;1.502;2023-10-08T01:54:02;7.87;;;3.73;;
78871;SDS011;68247;43.514;1.502;2023-10-08T01:56:28;6.82;;;3.22;;
78871;SDS011;68247;43.514;1.502;2023-10-08T01:58:54;6.40;;;3.28;;
78871;SDS011;68247;43.514;1.502;2023-10-08T02:01:20;6.10;;;3.13;;
78871;SDS011;68247;43.514;1.502;2023-10-08T02:03:46;6.77;;;3.17;;
78871;SDS011;68247;43.514;1.502;2023-10-08T02:06:11;6.93;;;3.20;;
78871;SDS011;68247;43.514;1.502;2023-10-08T02:08:37;6.60;;;3.50;;
78871;SDS011;68247;43.514;1.502;2023-10-08T02:11:03;6.40;;;3.17;;
78871;SDS011;68247;43.514;1.502;2023-10-08T02:13:28;6.78;;;3.35;;
78871;SDS011;68247;43.514;1.502;2023-10-08T02:15:55;7.00;;;3.45;;
78871;SDS011;68247;43.514;1.502;2023-10-08T02:18:21;5.37;;;3.10;;
78871;SDS011;68247;43.514;1.502;2023-10-08T02:20:48;7.18;;;3.33;;
78871;SDS011;68247;43.514;1.502;2023-10-08T02:23:13;7.37;;;3.30;;
78871;SDS011;68247;43.514;1.502;2023-10-08T02:25:39;7.87;;;3.70;;
78871;SDS011;68247;43.514;1.502;2023-10-08T02:28:05;7.10;;;3.35;;
78871;SDS011;68247;43.514;1.502;2023-10-08T02:30:33;5.50;;;3.10;;
78871;SDS011;68247;43.514;1.502;2023-10-08T02:32:59;6.93;;;3.78;;
78871;SDS011;68247;43.514;1.502;2023-10-08T02:35:25;6.77;;;3.50;;
78871;SDS011;68247;43.514;1.502;2023-10-08T02:37:52;7.53;;;3.47;;
78871;SDS011;68247;43.514;1.502;2023-10-08T02:40:19;7.78;;;3.45;;
78871;SDS011;68247;43.514;1.502;2023-10-08T02:42:51;7.37;;;3.43;;
78871;SDS011;68247;43.514;1.502;2023-10-08T02:45:23;9.88;;;3.40;;
78871;SDS011;68247;43.514;1.502;2023-10-08T02:47:54;6.80;;;3.85;;
78871;SDS011;68247;43.514;1.502;2023-10-08T02:50:21;7.22;;;3.50;;
78871;SDS011;68247;43.514;1.502;2023-10-08T02:52:52;7.05;;;3.40;;
78871;SDS011;68247;43.514;1.502;2023-10-08T02:55:17;9.60;;;3.60;;
78871;SDS011;68247;43.514;1.502;2023-10-08T02:58:01;8.20;;;3.78;;
78871;SDS011;68247;43.514;1.502;2023-10-08T03:00:30;7.60;;;4.03;;
78871;SDS011;68247;43.514;1.502;2023-10-08T03:02:58;7.75;;;3.85;;
78871;SDS011;68247;43.514;1.502;2023-10-08T03:05:27;8.68;;;3.30;;
78871;SDS011;68247;43.514;1.502;2023-10-08T03:08:01;7.03;;;3.55;;
78871;SDS011;68247;43.514;1.502;2023-10-08T03:10:27;7.57;;;3.45;;
78871;SDS011;68247;43.514;1.502;2023-10-08T03:12:58;7.87;;;3.80;;
78871;SDS011;68247;43.514;1.502;2023-10-08T03:15:29;7.43;;;3.75;;
78871;SDS011;68247;43.514;1.502;2023-10-08T03:17:56;6.50;;;3.30;;
78871;SDS011;68247;43.514;1.502;2023-10-08T03:20:34;7.40;;;3.30;;
78871;SDS011;68247;43.514;1.502;2023-10-08T03:23:11;7.70;;;3.25;;
78871;SDS011;68247;43.514;1.502;2023-10-08T03:25:47;6.00;;;3.30;;
78871;SDS011;68247;43.514;1.502;2023-10-08T03:28:15;6.85;;;3.17;;
78871;SDS011;68247;43.514;1.502;2023-10-08T03:30:41;7.70;;;3.50;;
78871;SDS011;68247;43.514;1.502;2023-10-08T03:33:18;6.28;;;3.13;;
78871;SDS011;68247;43.514;1.502;2023-10-08T03:35:48;9.13;;;3.45;;
78871;SDS011;68247;43.514;1.502;2023-10-08T03:38:17;9.30;;;3.67;;
78871;SDS011;68247;43.514;1.502;2023-10-08T03:41:04;7.32;;;3.42;;
78871;SDS011;68247;43.514;1.502;2023-10-08T03:43:33;7.05;;;3.20;;
78871;SDS011;68247;43.514;1.502;2023-10-08T03:46:00;6.93;;;3.05;;
78871;SDS011;68247;43.514;1.502;2023-10-08T03:48:31;7.32;;;3.28;;
78871;SDS011;68247;43.514;1.502;2023-10-08T03:51:01;8.37;;;3.33;;
78871;SDS011;68247;43.514;1.502;2023-10-08T03:53:32;8.05;;;3.05;;
78871;SDS011;68247;43.514;1.502;2023-10-08T03:56:02;7.32;;;2.95;;
78871;SDS011;68247;43.514;1.502;2023-10-08T03:58:31;8.27;;;3.67;;
78871;SDS011;68247;43.514;1.502;2023-10-08T04:01:05;9.63;;;3.17;;
78871;SDS011;68247;43.514;1.502;2023-10-08T04:03:35;8.53;;;3.00;;
78871;SDS011;68247;43.514;1.502;2023-10-08T04:06:16;8.00;;;3.30;;
78871;SDS011;68247;43.514;1.502;2023-10-08T04:08:47;8.88;;;3.75;;
78871;SDS011;68247;43.514;1.502;2023-10-08T04:11:25;6.78;;;3.20;;
78871;SDS011;68247;43.514;1.502;2023-10-08T04:13:57;6.60;;;3.15;;
78871;SDS011;68247;43.514;1.502;2023-10-08T04:16:27;6.20;;;3.00;;
78871;SDS011;68247;43.514;1.502;2023-10-08T04:18:53;7.07;;;3.15;;
78871;SDS011;68247;43.514;1.502;2023-10-08T04:21:21;7.05;;;3.63;;
78871;SDS011;68247;43.514;1.502;2023-10-08T04:23:47;7.13;;;2.97;;
78871;SDS011;68247;43.514;1.502;2023-10-08T04:26:17;9.55;;;3.20;;
78871;SDS011;68247;43.514;1.502;2023-10-08T04:28:48;7.17;;;3.10;;
78871;SDS011;68247;43.514;1.502;2023-10-08T04:31:20;5.68;;;2.65;;
78871;SDS011;68247;43.514;1.502;2023-10-08T04:33:49;8.82;;;3.60;;
78871;SDS011;68247;43.514;1.502;2023-10-08T04:36:16;6.85;;;3.30;;
78871;SDS011;68247;43.514;1.502;2023-10-08T04:38:45;9.90;;;3.70;;
78871;SDS011;68247;43.514;1.502;2023-10-08T04:41:13;6.13;;;3.10;;
78871;SDS011;68247;43.514;1.502;2023-10-08T04:43:45;6.57;;;3.03;;
78871;SDS011;68247;43.514;1.502;2023-10-08T04:46:10;6.32;;;3.17;;
78871;SDS011;68247;43.514;1.502;2023-10-08T04:48:50;6.38;;;3.00;;
78871;SDS011;68247;43.514;1.502;2023-10-08T04:51:16;7.63;;;3.40;;
78871;SDS011;68247;43.514;1.502;2023-10-08T04:53:43;7.05;;;3.13;;
78871;SDS011;68247;43.514;1.502;2023-10-08T04:56:10;7.15;;;3.13;;
78871;SDS011;68247;43.514;1.502;2023-10-08T04:58:42;5.53;;;2.75;;
78871;SDS011;68247;43.514;1.502;2023-10-08T05:01:11;5.53;;;2.92;;
78871;SDS011;68247;43.514;1.502;2023-10-08T05:03:48;8.40;;;3.00;;
78871;SDS011;68247;43.514;1.502;2023-10-08T05:06:27;5.85;;;2.83;;
78871;SDS011;68247;43.514;1.502;2023-10-08T05:09:00;6.15;;;2.83;;
78871;SDS011;68247;43.514;1.502;2023-10-08T05:11:37;9.13;;;3.17;;
78871;SDS011;68247;43.514;1.502;2023-10-08T05:14:24;7.30;;;2.95;;
78871;SDS011;68247;43.514;1.502;2023-10-08T05:16:59;7.00;;;3.00;;
78871;SDS011;68247;43.514;1.502;2023-10-08T05:19:31;7.57;;;3.95;;
78871;SDS011;68247;43.514;1.502;2023-10-08T05:22:16;6.10;;;2.80;;
78871;SDS011;68247;43.514;1.502;2023-10-08T05:24:54;8.45;;;2.92;;
78871;SDS011;68247;43.514;1.502;2023-10-08T05:27:33;6.97;;;3.10;;
78871;SDS011;68247;43.514;1.502;2023-10-08T05:30:05;8.70;;;3.17;;
78871;SDS011;68247;43.514;1.502;2023-10-08T05:32:42;7.15;;;3.20;;
78871;SDS011;68247;43.514;1.502;2023-10-08T05:35:37;7.63;;;3.47;;
78871;SDS011;68247;43.514;1.502;2023-10-08T05:38:09;7.15;;;2.92;;
78871;SDS011;68247;43.514;1.502;2023-10-08T05:40:42;8.48;;;3.05;;
78871;SDS011;68247;43.514;1.502;2023-10-08T05:46:10;9.57;;;3.30;;
78871;SDS011;68247;43.514;1.502;2023-10-08T05:51:37;6.60;;;2.67;;
78871;SDS011;68247;43.514;1.502;2023-10-08T05:54:29;9.38;;;3.50;;
78871;SDS011;68247;43.514;1.502;2023-10-08T05:59:32;8.23;;;3.22;;
78871;SDS011;68247;43.514;1.502;2023-10-08T06:02:17;6.07;;;3.15;;
78871;SDS011;68247;43.514;1.502;2023-10-08T06:05:05;8.43;;;3.40;;
78871;SDS011;68247;43.514;1.502;2023-10-08T06:07:48;7.90;;;3.47;;
78871;SDS011;68247;43.514;1.502;2023-10-08T06:13:04;9.05;;;3.58;;
78871;SDS011;68247;43.514;1.502;2023-10-08T06:15:40;6.68;;;3.40;;
78871;SDS011;68247;43.514;1.502;2023-10-08T06:18:13;9.63;;;3.53;;
78871;SDS011;68247;43.514;1.502;2023-10-08T06:20:40;9.18;;;3.78;;
78871;SDS011;68247;43.514;1.502;2023-10-08T06:23:11;7.90;;;3.60;;
78871;SDS011;68247;43.514;1.502;2023-10-08T06:25:44;7.55;;;3.15;;
78871;SDS011;68247;43.514;1.502;2023-10-08T06:28:16;7.53;;;3.22;;
78871;SDS011;68247;43.514;1.502;2023-10-08T06:30:49;7.88;;;3.47;;
78871;SDS011;68247;43.514;1.502;2023-10-08T06:33:18;7.70;;;3.45;;
78871;SDS011;68247;43.514;1.502;2023-10-08T06:35:44;10.13;;;3.57;;
78871;SDS011;68247;43.514;1.502;2023-10-08T06:38:10;8.90;;;3.43;;
78871;SDS011;68247;43.514;1.502;2023-10-08T06:40:36;8.57;;;3.55;;
78871;SDS011;68247;43.514;1.502;2023-10-08T06:43:02;8.52;;;3.63;;
78871;SDS011;68247;43.514;1.502;2023-10-08T06:45:40;8.02;;;3.70;;
78871;SDS011;68247;43.514;1.502;2023-10-08T06:48:06;8.90;;;3.42;;
78871;SDS011;68247;43.514;1.502;2023-10-08T06:50:32;7.80;;;3.80;;
78871;SDS011;68247;43.514;1.502;2023-10-08T06:53:01;9.88;;;3.85;;
78871;SDS011;68247;43.514;1.502;2023-10-08T06:55:34;7.00;;;3.38;;
78871;SDS011;68247;43.514;1.502;2023-10-08T06:58:01;7.63;;;3.43;;
78871;SDS011;68247;43.514;1.502;2023-10-08T07:00:31;6.97;;;3.58;;
78871;SDS011;68247;43.514;1.502;2023-10-08T07:03:08;8.43;;;3.42;;
78871;SDS011;68247;43.514;1.502;2023-10-08T07:05:35;8.40;;;3.80;;
78871;SDS011;68247;43.514;1.502;2023-10-08T07:08:04;7.30;;;3.60;;
78871;SDS011;68247;43.514;1.502;2023-10-08T07:10:32;7.97;;;4.10;;
78871;SDS011;68247;43.514;1.502;2023-10-08T07:12:59;7.97;;;3.67;;
78871;SDS011;68247;43.514;1.502;2023-10-08T07:15:25;8.27;;;3.75;;
78871;SDS011;68247;43.514;1.502;2023-10-08T07:17:51;8.90;;;3.80;;
78871;SDS011;68247;43.514;1.502;2023-10-08T07:20:17;9.53;;;4.27;;
78871;SDS011;68247;43.514;1.502;2023-10-08T07:22:46;9.00;;;3.80;;
78871;SDS011;68247;43.514;1.502;2023-10-08T07:25:19;7.45;;;3.95;;
78871;SDS011;68247;43.514;1.502;2023-10-08T07:27:46;8.15;;;4.00;;
78871;SDS011;68247;43.514;1.502;2023-10-08T07:30:12;9.83;;;3.97;;
78871;SDS011;68247;43.514;1.502;2023-10-08T07:32:38;8.23;;;4.13;;
78871;SDS011;68247;43.514;1.502;2023-10-08T07:35:04;7.72;;;3.90;;
78871;SDS011;68247;43.514;1.502;2023-10-08T07:37:50;7.80;;;4.18;;
78871;SDS011;68247;43.514;1.502;2023-10-08T07:40:19;8.52;;;4.00;;
78871;SDS011;68247;43.514;1.502;2023-10-08T07:42:46;9.57;;;3.90;;
78871;SDS011;68247;43.514;1.502;2023-10-08T07:45:17;7.40;;;3.90;;
78871;SDS011;68247;43.514;1.502;2023-10-08T07:47:43;8.20;;;3.80;;
78871;SDS011;68247;43.514;1.502;2023-10-08T07:50:09;7.95;;;4.05;;
78871;SDS011;68247;43.514;1.502;2023-10-08T07:52:38;11.23;;;3.92;;
78871;SDS011;68247;43.514;1.502;2023-10-08T07:55:03;8.73;;;4.30;;
78871;SDS011;68247;43.514;1.502;2023-10-08T07:57:32;8.20;;;4.45;;
78871;SDS011;68247;43.514;1.502;2023-10-08T07:59:58;9.17;;;4.00;;
78871;SDS011;68247;43.514;1.502;2023-10-08T08:02:43;10.38;;;4.22;;
78871;SDS011;68247;43.514;1.502;2023-10-08T08:05:08;8.97;;;4.37;;
78871;SDS011;68247;43.514;1.502;2023-10-08T08:07:34;7.83;;;4.07;;
78871;SDS011;68247;43.514;1.502;2023-10-08T08:09:59;8.40;;;4.20;;
78871;SDS011;68247;43.514;1.502;2023-10-08T08:12:25;8.43;;;4.23;;
78871;SDS011;68247;43.514;1.502;2023-10-08T08:14:52;7.18;;;3.72;;
78871;SDS011;68247;43.514;1.502;2023-10-08T08:17:18;9.40;;;3.83;;
78871;SDS011;68247;43.514;1.502;2023-10-08T08:19:44;10.38;;;4.10;;
78871;SDS011;68247;43.514;1.502;2023-10-08T08:22:13;7.05;;;3.85;;
78871;SDS011;68247;43.514;1.502;2023-10-08T08:24:49;7.25;;;3.92;;
78871;SDS011;68247;43.514;1.502;2023-10-08T08:27:20;9.73;;;4.05;;
78871;SDS011;68247;43.514;1.502;2023-10-08T08:29:56;8.40;;;3.70;;
78871;SDS011;68247;43.514;1.502;2023-10-08T08:32:34;7.45;;;3.78;;
78871;SDS011;68247;43.514;1.502;2023-10-08T08:35:08;6.88;;;3.47;;
78871;SDS011;68247;43.514;1.502;2023-10-08T08:37:34;8.45;;;3.67;;
78871;SDS011;68247;43.514;1.502;2023-10-08T08:40:07;5.93;;;3.00;;
78871;SDS011;68247;43.514;1.502;2023-10-08T08:42:53;10.63;;;3.87;;
78871;SDS011;68247;43.514;1.502;2023-10-08T08:45:21;7.20;;;3.20;;
78871;SDS011;68247;43.514;1.502;2023-10-08T08:47:47;7.60;;;3.50;;
78871;SDS011;68247;43.514;1.502;2023-10-08T08:50:13;6.45;;;3.40;;
78871;SDS011;68247;43.514;1.502;2023-10-08T08:52:39;8.97;;;3.23;;
78871;SDS011;68247;43.514;1.502;2023-10-08T08:55:06;5.97;;;3.13;;
78871;SDS011;68247;43.514;1.502;2023-10-08T08:57:39;6.07;;;3.00;;
78871;SDS011;68247;43.514;1.502;2023-10-08T09:00:06;10.10;;;3.17;;
78871;SDS011;68247;43.514;1.502;2023-10-08T09:02:37;6.70;;;3.10;;
78871;SDS011;68247;43.514;1.502;2023-10-08T09:05:02;7.13;;;3.30;;
78871;SDS011;68247;43.514;1.502;2023-10-08T09:10:23;7.55;;;3.08;;
78871;SDS011;68247;43.514;1.502;2023-10-08T09:12:53;6.03;;;3.10;;
78871;SDS011;68247;43.514;1.502;2023-10-08T09:15:23;6.97;;;3.22;;
78871;SDS011;68247;43.514;1.502;2023-10-08T09:17:49;8.18;;;3.30;;
78871;SDS011;68247;43.514;1.502;2023-10-08T09:20:14;6.97;;;3.20;;
78871;SDS011;68247;43.514;1.502;2023-10-08T09:22:40;6.50;;;2.95;;
78871;SDS011;68247;43.514;1.502;2023-10-08T09:25:06;5.97;;;3.03;;
78871;SDS011;68247;43.514;1.502;2023-10-08T09:27:32;8.27;;;3.37;;
78871;SDS011;68247;43.514;1.502;2023-10-08T09:29:58;6.90;;;3.22;;
78871;SDS011;68247;43.514;1.502;2023-10-08T09:32:24;6.85;;;3.33;;
78871;SDS011;68247;43.514;1.502;2023-10-08T09:34:50;8.27;;;3.73;;
78871;SDS011;68247;43.514;1.502;2023-10-08T09:37:17;6.60;;;3.30;;
78871;SDS011;68247;43.514;1.502;2023-10-08T09:39:45;7.55;;;3.20;;
78871;SDS011;68247;43.514;1.502;2023-10-08T09:42:11;7.00;;;3.20;;
78871;SDS011;68247;43.514;1.502;2023-10-08T09:44:39;7.13;;;3.30;;
78871;SDS011;68247;43.514;1.502;2023-10-08T09:47:08;5.83;;;3.23;;
78871;SDS011;68247;43.514;1.502;2023-10-08T09:52:22;7.55;;;3.25;;
78871;SDS011;68247;43.514;1.502;2023-10-08T09:54:52;6.30;;;3.10;;
78871;SDS011;68247;43.514;1.502;2023-10-08T09:57:24;8.68;;;3.58;;
78871;SDS011;68247;43.514;1.502;2023-10-08T09:59:51;6.80;;;3.20;;
78871;SDS011;68247;43.514;1.502;2023-10-08T10:02:18;6.65;;;2.92;;
78871;SDS011;68247;43.514;1.502;2023-10-08T10:04:47;6.43;;;3.38;;
78871;SDS011;68247;43.514;1.502;2023-10-08T10:07:17;7.38;;;3.08;;
78871;SDS011;68247;43.514;1.502;2023-10-08T10:09:54;6.18;;;3.00;;
78871;SDS011;68247;43.514;1.502;2023-10-08T10:12:20;8.07;;;3.20;;
78871;SDS011;68247;43.514;1.502;2023-10-08T10:14:52;7.70;;;3.17;;
78871;SDS011;68247;43.514;1.502;2023-10-08T10:17:27;8.10;;;3.60;;
78871;SDS011;68247;43.514;1.502;2023-10-08T10:19:56;7.10;;;3.13;;
78871;SDS011;68247;43.514;1.502;2023-10-08T10:22:31;7.45;;;3.28;;
78871;SDS011;68247;43.514;1.502;2023-10-08T10:24:59;6.47;;;3.47;;
78871;SDS011;68247;43.514;1.502;2023-10-08T10:27:29;7.10;;;3.53;;
78871;SDS011;68247;43.514;1.502;2023-10-08T10:30:02;5.57;;;3.20;;
78871;SDS011;68247;43.514;1.502;2023-10-08T10:32:34;7.88;;;3.63;;
78871;SDS011;68247;43.514;1.502;2023-10-08T10:35:00;6.05;;;3.70;;
78871;SDS011;68247;43.514;1.502;2023-10-08T10:37:28;6.50;;;3.40;;
78871;SDS011;68247;43.514;1.502;2023-10-08T10:40:06;7.53;;;3.60;;
78871;SDS011;68247;43.514;1.502;2023-10-08T10:42:35;6.85;;;3.70;;
78871;SDS011;68247;43.514;1.502;2023-10-08T10:45:11;7.13;;;3.65;;
78871;SDS011;68247;43.514;1.502;2023-10-08T10:47:58;9.07;;;3.90;;
78871;SDS011;68247;43.514;1.502;2023-10-08T10:50:36;10.93;;;3.70;;
78871;SDS011;68247;43.514;1.502;2023-10-08T10:53:13;6.78;;;3.17;;
78871;SDS011;68247;43.514;1.502;2023-10-08T10:55:39;7.73;;;3.90;;
78871;SDS011;68247;43.514;1.502;2023-10-08T10:58:13;5.77;;;3.63;;
78871;SDS011;68247;43.514;1.502;2023-10-08T11:00:43;8.05;;;3.83;;
78871;SDS011;68247;43.514;1.502;2023-10-08T11:03:09;6.35;;;3.80;;
78871;SDS011;68247;43.514;1.502;2023-10-08T11:05:56;6.97;;;3.95;;
78871;SDS011;68247;43.514;1.502;2023-10-08T11:08:31;7.90;;;3.67;;
78871;SDS011;68247;43.514;1.502;2023-10-08T11:11:00;7.80;;;3.77;;
78871;SDS011;68247;43.514;1.502;2023-10-08T11:13:30;8.40;;;3.50;;
78871;SDS011;68247;43.514;1.502;2023-10-08T11:16:03;7.70;;;3.80;;
78871;SDS011;68247;43.514;1.502;2023-10-08T11:18:29;6.85;;;4.10;;
78871;SDS011;68247;43.514;1.502;2023-10-08T11:21:04;7.27;;;4.00;;
78871;SDS011;68247;43.514;1.502;2023-10-08T11:23:42;7.10;;;3.47;;
78871;SDS011;68247;43.514;1.502;2023-10-08T11:26:11;7.97;;;4.78;;
78871;SDS011;68247;43.514;1.502;2023-10-08T11:28:40;8.13;;;4.27;;
78871;SDS011;68247;43.514;1.502;2023-10-08T11:31:12;9.40;;;4.45;;
78871;SDS011;68247;43.514;1.502;2023-10-08T11:33:42;6.88;;;4.18;;
78871;SDS011;68247;43.514;1.502;2023-10-08T11:36:19;8.45;;;4.30;;
78871;SDS011;68247;43.514;1.502;2023-10-08T11:38:46;7.97;;;4.13;;
78871;SDS011;68247;43.514;1.502;2023-10-08T11:41:15;7.30;;;4.07;;
78871;SDS011;68247;43.514;1.502;2023-10-08T11:43:48;7.00;;;4.60;;
78871;SDS011;68247;43.514;1.502;2023-10-08T11:46:19;7.75;;;4.80;;
78871;SDS011;68247;43.514;1.502;2023-10-08T11:48:50;7.15;;;4.38;;
78871;SDS011;68247;43.514;1.502;2023-10-08T11:51:16;7.17;;;4.30;;
78871;SDS011;68247;43.514;1.502;2023-10-08T11:53:42;8.15;;;4.50;;
78871;SDS011;68247;43.514;1.502;2023-10-08T11:56:09;8.25;;;4.78;;
78871;SDS011;68247;43.514;1.502;2023-10-08T11:58:38;8.03;;;4.50;;
78871;SDS011;68247;43.514;1.502;2023-10-08T12:01:05;8.18;;;4.38;;
78871;SDS011;68247;43.514;1.502;2023-10-08T12:03:31;8.90;;;4.90;;
78871;SDS011;68247;43.514;1.502;2023-10-08T12:05:56;8.98;;;4.88;;
78871;SDS011;68247;43.514;1.502;2023-10-08T12:08:25;6.68;;;4.68;;
78871;SDS011;68247;43.514;1.502;2023-10-08T12:10:54;7.93;;;4.73;;
78871;SDS011;68247;43.514;1.502;2023-10-08T12:13:19;6.90;;;3.92;;
78871;SDS011;68247;43.514;1.502;2023-10-08T12:15:53;8.52;;;4.30;;
78871;SDS011;68247;43.514;1.502;2023-10-08T12:18:31;7.97;;;4.30;;
78871;SDS011;68247;43.514;1.502;2023-10-08T12:21:04;7.60;;;4.20;;
78871;SDS011;68247;43.514;1.502;2023-10-08T12:23:35;8.52;;;5.00;;
78871;SDS011;68247;43.514;1.502;2023-10-08T12:26:03;5.70;;;4.07;;
78871;SDS011;68247;43.514;1.502;2023-10-08T12:28:32;6.55;;;4.22;;
78871;SDS011;68247;43.514;1.502;2023-10-08T12:30:59;6.77;;;4.20;;
78871;SDS011;68247;43.514;1.502;2023-10-08T12:33:26;7.20;;;4.30;;
78871;SDS011;68247;43.514;1.502;2023-10-08T12:35:54;6.57;;;4.20;;
78871;SDS011;68247;43.514;1.502;2023-10-08T12:38:21;7.50;;;4.22;;
78871;SDS011;68247;43.514;1.502;2023-10-08T12:40:47;6.38;;;4.10;;
78871;SDS011;68247;43.514;1.502;2023-10-08T12:43:18;5.80;;;3.83;;
78871;SDS011;68247;43.514;1.502;2023-10-08T12:45:49;7.18;;;4.00;;
78871;SDS011;68247;43.514;1.502;2023-10-08T12:48:25;6.30;;;4.03;;
78871;SDS011;68247;43.514;1.502;2023-10-08T12:50:51;7.47;;;4.55;;
78871;SDS011;68247;43.514;1.502;2023-10-08T12:53:24;7.32;;;4.15;;
78871;SDS011;68247;43.514;1.502;2023-10-08T12:55:59;9.03;;;4.33;;
78871;SDS011;68247;43.514;1.502;2023-10-08T12:58:40;6.45;;;4.03;;
78871;SDS011;68247;43.514;1.502;2023-10-08T13:01:10;6.60;;;3.88;;
78871;SDS011;68247;43.514;1.502;2023-10-08T13:03:36;6.18;;;4.00;;
78871;SDS011;68247;43.514;1.502;2023-10-08T13:06:12;11.35;;;4.03;;
78871;SDS011;68247;43.514;1.502;2023-10-08T13:09:01;6.37;;;4.27;;
78871;SDS011;68247;43.514;1.502;2023-10-08T13:11:30;7.80;;;4.50;;
78871;SDS011;68247;43.514;1.502;2023-10-08T13:13:59;8.68;;;4.07;;
78871;SDS011;68247;43.514;1.502;2023-10-08T13:16:25;7.13;;;3.97;;
78871;SDS011;68247;43.514;1.502;2023-10-08T13:18:53;6.95;;;4.93;;
78871;SDS011;68247;43.514;1.502;2023-10-08T13:21:21;7.50;;;4.60;;
78871;SDS011;68247;43.514;1.502;2023-10-08T13:23:50;6.00;;;4.00;;
78871;SDS011;68247;43.514;1.502;2023-10-08T13:26:16;7.40;;;4.30;;
78871;SDS011;68247;43.514;1.502;2023-10-08T13:28:42;6.10;;;4.05;;
78871;SDS011;68247;43.514;1.502;2023-10-08T13:31:08;7.85;;;3.88;;
78871;SDS011;68247;43.514;1.502;2023-10-08T13:33:40;6.93;;;4.10;;
78871;SDS011;68247;43.514;1.502;2023-10-08T13:36:13;7.10;;;4.50;;
78871;SDS011;68247;43.514;1.502;2023-10-08T13:38:39;6.13;;;4.13;;
78871;SDS011;68247;43.514;1.502;2023-10-08T13:41:06;6.68;;;4.47;;
78871;SDS011;68247;43.514;1.502;2023-10-08T13:43:39;6.22;;;4.32;;
78871;SDS011;68247;43.514;1.502;2023-10-08T13:46:13;7.97;;;4.70;;
78871;SDS011;68247;43.514;1.502;2023-10-08T13:48:43;6.80;;;4.40;;
78871;SDS011;68247;43.514;1.502;2023-10-08T13:51:13;8.60;;;4.90;;
78871;SDS011;68247;43.514;1.502;2023-10-08T13:53:42;8.20;;;5.43;;
78871;SDS011;68247;43.514;1.502;2023-10-08T13:56:17;7.45;;;5.00;;
78871;SDS011;68247;43.514;1.502;2023-10-08T13:58:44;7.63;;;4.72;;
78871;SDS011;68247;43.514;1.502;2023-10-08T14:01:12;6.23;;;4.33;;
78871;SDS011;68247;43.514;1.502;2023-10-08T14:03:47;7.22;;;4.57;;
78871;SDS011;68247;43.514;1.502;2023-10-08T14:06:13;6.15;;;4.68;;
78871;SDS011;68247;43.514;1.502;2023-10-08T14:08:41;7.70;;;5.00;;
78871;SDS011;68247;43.514;1.502;2023-10-08T14:11:09;7.05;;;4.60;;
78871;SDS011;68247;43.514;1.502;2023-10-08T14:13:37;6.93;;;4.47;;
78871;SDS011;68247;43.514;1.502;2023-10-08T14:16:03;6.32;;;4.82;;
78871;SDS011;68247;43.514;1.502;2023-10-08T14:18:33;6.70;;;4.60;;
78871;SDS011;68247;43.514;1.502;2023-10-08T14:21:06;6.57;;;4.32;;
78871;SDS011;68247;43.514;1.502;2023-10-08T14:23:35;7.65;;;5.13;;
78871;SDS011;68247;43.514;1.502;2023-10-08T14:26:04;8.63;;;4.90;;
78871;SDS011;68247;43.514;1.502;2023-10-08T14:28:32;6.90;;;5.20;;
78871;SDS011;68247;43.514;1.502;2023-10-08T14:31:18;6.53;;;4.90;;
78871;SDS011;68247;43.514;1.502;2023-10-08T14:33:47;7.85;;;5.00;;
78871;SDS011;68247;43.514;1.502;2023-10-08T14:36:47;6.53;;;4.90;;
78871;SDS011;68247;43.514;1.502;2023-10-08T14:39:32;8.85;;;5.40;;
78871;SDS011;68247;43.514;1.502;2023-10-08T14:42:17;7.30;;;5.07;;
78871;SDS011;68247;43.514;1.502;2023-10-08T14:45:01;5.70;;;4.77;;
78871;SDS011;68247;43.514;1.502;2023-10-08T14:47:27;6.93;;;4.82;;
78871;SDS011;68247;43.514;1.502;2023-10-08T14:49:53;7.22;;;4.90;;
78871;SDS011;68247;43.514;1.502;2023-10-08T14:52:18;8.40;;;4.73;;
78871;SDS011;68247;43.514;1.502;2023-10-08T14:54:44;7.45;;;5.22;;
78871;SDS011;68247;43.514;1.502;2023-10-08T14:57:10;7.17;;;5.33;;
78871;SDS011;68247;43.514;1.502;2023-10-08T14:59:39;6.18;;;5.30;;
78871;SDS011;68247;43.514;1.502;2023-10-08T15:02:05;7.25;;;5.00;;
78871;SDS011;68247;43.514;1.502;2023-10-08T15:04:32;7.30;;;5.20;;
78871;SDS011;68247;43.514;1.502;2023-10-08T15:07:00;7.38;;;5.03;;
78871;SDS011;68247;43.514;1.502;2023-10-08T15:09:26;11.82;;;5.07;;
78871;SDS011;68247;43.514;1.502;2023-10-08T15:11:52;6.60;;;4.27;;
78871;SDS011;68247;43.514;1.502;2023-10-08T15:14:20;6.80;;;4.78;;
78871;SDS011;68247;43.514;1.502;2023-10-08T15:16:48;6.72;;;4.72;;
78871;SDS011;68247;43.514;1.502;2023-10-08T15:19:23;6.73;;;4.67;;
78871;SDS011;68247;43.514;1.502;2023-10-08T15:21:49;7.75;;;4.72;;
78871;SDS011;68247;43.514;1.502;2023-10-08T15:24:18;8.30;;;4.43;;